createdAt,value
2023-01-20T00:02:11.082Z,99161.13
2023-01-20T00:04:37.717Z,99166.66
2023-01-20T00:07:04.313Z,99174.72
2023-01-20T00:09:30.932Z,99174.03
2023-01-20T00:11:57.468Z,99178.00
2023-01-20T00:14:25.654Z,99185.06
2023-01-20T00:16:52.259Z,99175.91
2023-01-20T00:19:18.969Z,99189.06
2023-01-20T00:21:45.516Z,99194.69
2023-01-20T00:24:12.043Z,99198.97
2023-01-20T00:26:38.743Z,99188.88
2023-01-20T00:29:05.226Z,99199.00
2023-01-20T00:31:32.244Z,99194.19
2023-01-20T00:34:00.364Z,99208.63
2023-01-20T00:36:28.602Z,99205.69
2023-01-20T00:38:55.241Z,99216.91
2023-01-20T00:41:22.079Z,99216.66
2023-01-20T00:43:49.049Z,99224.44
2023-01-20T00:46:15.823Z,99220.03
2023-01-20T00:48:42.926Z,99227.56
2023-01-20T00:51:10.347Z,99230.91
2023-01-20T00:53:36.931Z,99230.69
2023-01-20T00:56:03.904Z,99235.91
2023-01-20T00:58:30.461Z,99239.91
2023-01-20T01:00:58.696Z,99238.03
2023-01-20T01:03:28.219Z,99236.78
2023-01-20T01:05:55.038Z,99242.44
2023-01-20T01:08:21.695Z,99247.41
2023-01-20T01:10:48.330Z,99240.06
2023-01-20T01:13:14.922Z,99245.44
2023-01-20T01:15:48.200Z,99236.97
2023-01-20T01:18:15.077Z,99242.19
2023-01-20T01:20:41.536Z,99244.94
2023-01-20T01:23:07.996Z,99252.66
2023-01-20T01:25:34.829Z,99250.03
2023-01-20T01:28:01.315Z,99256.41
2023-01-20T01:30:27.936Z,99263.13
2023-01-20T01:32:54.635Z,99266.03
2023-01-20T01:35:21.130Z,99263.53
2023-01-20T01:37:47.704Z,99264.97
2023-01-20T01:40:14.402Z,99262.03
2023-01-20T01:42:42.874Z,99265.59
2023-01-20T01:45:12.639Z,99267.06
2023-01-20T01:48:03.068Z,99275.66
2023-01-20T01:50:39.243Z,99276.91
2023-01-20T01:53:06.267Z,99273.25
2023-01-20T01:55:35.197Z,99262.25
2023-01-20T01:58:02.975Z,99263.53
2023-01-20T02:00:29.563Z,99266.34
2023-01-20T02:02:56.740Z,99261.00
2023-01-20T02:05:25.189Z,99259.97
2023-01-20T02:07:52.322Z,99260.81
2023-01-20T02:10:18.858Z,99258.50
2023-01-20T02:12:49.415Z,99261.00
2023-01-20T02:15:17.346Z,99256.94
2023-01-20T02:17:49.621Z,99257.88
2023-01-20T02:20:28.435Z,99264.88
2023-01-20T02:22:59.421Z,99277.31
2023-01-20T02:25:46.626Z,99272.28
2023-01-20T02:28:16.076Z,99272.19
2023-01-20T02:31:08.674Z,99277.41
2023-01-20T02:33:41.284Z,99274.94
2023-01-20T02:36:20.832Z,99274.81
2023-01-20T02:38:55.249Z,99280.03
2023-01-20T02:41:35.263Z,99279.03
2023-01-20T02:44:15.986Z,99279.03
2023-01-20T02:47:12.040Z,99279.63
2023-01-20T02:50:07.691Z,99281.09
2023-01-20T02:52:44.414Z,99280.16
2023-01-20T02:55:15.568Z,99272.72
2023-01-20T02:57:45.931Z,99269.06
2023-01-20T03:00:25.948Z,99272.19
2023-01-20T03:02:53.713Z,99274.94
2023-01-20T03:05:41.336Z,99274.41
2023-01-20T03:08:10.039Z,99273.03
2023-01-20T03:10:37.787Z,99273.16
2023-01-20T03:13:36.517Z,99272.09
2023-01-20T03:16:09.739Z,99274.06
2023-01-20T03:18:36.907Z,99291.53
2023-01-20T03:21:05.638Z,99284.34
2023-01-20T03:23:34.911Z,99282.03
2023-01-20T03:26:13.788Z,99286.22
2023-01-20T03:28:44.684Z,99289.44
2023-01-20T03:31:30.440Z,99286.22
2023-01-20T03:33:59.055Z,99296.34
2023-01-20T03:36:27.359Z,99296.88
2023-01-20T03:38:55.152Z,99305.56
2023-01-20T03:41:40.094Z,99305.78
2023-01-20T03:44:12.889Z,99304.28
2023-01-20T03:46:46.247Z,99306.91
2023-01-20T03:49:24.417Z,99314.84
2023-01-20T03:51:55.408Z,99322.06
2023-01-20T03:54:28.365Z,99332.22
2023-01-20T03:57:06.764Z,99337.34
2023-01-20T03:59:36.017Z,99332.34
2023-01-20T04:02:04.492Z,99348.53
2023-01-20T04:04:33.713Z,99358.69
2023-01-20T04:07:00.511Z,99357.94
2023-01-20T04:09:29.581Z,99363.41
2023-01-20T04:11:56.243Z,99368.63
2023-01-20T04:14:22.889Z,99365.88
2023-01-20T04:16:57.420Z,99374.56
2023-01-20T04:19:24.676Z,99374.38
2023-01-20T04:22:07.760Z,99372.28
2023-01-20T04:24:57.430Z,99375.59
2023-01-20T04:27:23.972Z,99377.16
2023-01-20T04:29:50.527Z,99378.31
2023-01-20T04:32:17.075Z,99381.13
2023-01-20T04:34:43.602Z,99382.38
2023-01-20T04:37:10.067Z,99379.13
2023-01-20T04:39:36.622Z,99381.56
2023-01-20T04:42:03.725Z,99395.25
2023-01-20T04:44:30.214Z,99399.56
2023-01-20T04:46:58.742Z,99406.97
2023-01-20T04:49:25.453Z,99413.16
2023-01-20T04:51:51.883Z,99416.91
2023-01-20T04:54:18.650Z,99423.94
2023-01-20T04:56:45.443Z,99436.25
2023-01-20T04:59:11.990Z,99443.91
2023-01-20T05:01:38.778Z,99448.50
2023-01-20T05:04:05.502Z,99446.41
2023-01-20T05:06:31.964Z,99441.84
2023-01-20T05:08:58.746Z,99445.66
2023-01-20T05:11:25.358Z,99441.31
2023-01-20T05:13:51.810Z,99448.94
2023-01-20T05:16:25.090Z,99453.03
2023-01-20T05:18:51.703Z,99450.81
2023-01-20T05:21:18.229Z,99450.06
2023-01-20T05:23:44.820Z,99442.53
2023-01-20T05:26:11.445Z,99449.63
2023-01-20T05:28:38.028Z,99454.69
2023-01-20T05:31:04.713Z,99470.16
2023-01-20T05:33:31.387Z,99475.00
2023-01-20T05:35:57.841Z,99477.53
2023-01-20T05:38:24.370Z,99475.34
2023-01-20T05:40:50.984Z,99486.00
2023-01-20T05:43:17.472Z,99478.13
2023-01-20T05:45:44.103Z,99475.06
2023-01-20T05:48:10.715Z,99477.91
2023-01-20T05:50:37.244Z,99482.19
2023-01-20T05:53:03.852Z,99494.25
2023-01-20T05:55:30.467Z,99502.28
2023-01-20T05:57:56.931Z,99514.38
2023-01-20T06:00:23.779Z,99515.19
2023-01-20T06:02:50.476Z,99525.28
2023-01-20T06:05:17.614Z,99544.13
2023-01-20T06:07:44.599Z,99552.78
2023-01-20T06:10:11.595Z,99560.66
2023-01-20T06:12:38.148Z,99559.41
2023-01-20T06:15:05.258Z,99574.47
2023-01-20T06:17:31.855Z,99568.19
2023-01-20T06:19:58.696Z,99576.34
2023-01-20T06:22:26.277Z,99585.19
2023-01-20T06:24:52.858Z,99594.31
2023-01-20T06:27:19.847Z,99600.47
2023-01-20T06:29:46.566Z,99598.81
2023-01-20T06:32:13.073Z,99600.97
2023-01-20T06:34:39.787Z,99597.81
2023-01-20T06:37:06.685Z,99603.88
2023-01-20T06:39:33.241Z,99606.28
2023-01-20T06:42:00.417Z,99603.38
2023-01-20T06:44:27.253Z,99601.59
2023-01-20T06:46:54.252Z,99606.22
2023-01-20T06:49:20.808Z,99610.41
2023-01-20T06:51:49.024Z,99613.97
2023-01-20T06:54:16.411Z,99614.81
2023-01-20T06:56:43.015Z,99620.88
2023-01-20T06:59:10.777Z,99632.16
2023-01-20T07:01:37.597Z,99633.13
2023-01-20T07:04:04.126Z,99627.75
2023-01-20T07:06:38.915Z,99623.28
2023-01-20T07:09:07.312Z,99631.56
2023-01-20T07:11:35.774Z,99638.78
2023-01-20T07:14:03.334Z,99652.94
2023-01-20T07:16:30.069Z,99645.41
2023-01-20T07:18:56.606Z,99650.91
2023-01-20T07:21:26.263Z,99662.34
2023-01-20T07:23:53.142Z,99658.56
2023-01-20T07:26:22.216Z,99664.38
2023-01-20T07:28:49.256Z,99654.44
2023-01-20T07:31:18.215Z,99656.03
2023-01-20T07:33:45.469Z,99654.53
2023-01-20T07:36:12.994Z,99660.50
2023-01-20T07:38:40.452Z,99660.50
2023-01-20T07:41:10.905Z,99656.66
2023-01-20T07:43:38.179Z,99658.25
2023-01-20T07:46:05.279Z,99657.22
2023-01-20T07:48:33.378Z,99662.44
2023-01-20T07:51:03.414Z,99664.94
2023-01-20T07:53:30.775Z,99659.09
2023-01-20T07:56:01.172Z,99663.56
2023-01-20T07:58:28.926Z,99659.63
2023-01-20T08:00:55.813Z,99675.41
2023-01-20T08:03:23.280Z,99669.34
2023-01-20T08:05:50.074Z,99672.25
2023-01-20T08:08:16.736Z,99681.69
2023-01-20T08:10:43.341Z,99678.03
2023-01-20T08:13:10.197Z,99677.28
2023-01-20T08:15:37.263Z,99676.44
2023-01-20T08:18:04.333Z,99687.66
2023-01-20T08:20:31.001Z,99676.06
2023-01-20T08:22:57.704Z,99679.31
2023-01-20T08:25:24.324Z,99676.50
2023-01-20T08:27:50.948Z,99678.28
2023-01-20T08:30:17.946Z,99684.47
2023-01-20T08:32:44.639Z,99681.75
2023-01-20T08:35:11.207Z,99685.00
2023-01-20T08:37:37.935Z,99678.41
2023-01-20T08:40:09.179Z,99683.56
2023-01-20T08:42:37.346Z,99679.16
2023-01-20T08:45:05.866Z,99686.47
2023-01-20T08:47:36.084Z,99684.59
2023-01-20T08:50:04.034Z,99690.75
2023-01-20T08:52:30.729Z,99702.72
2023-01-20T08:54:58.702Z,99705.03
2023-01-20T08:57:26.801Z,99704.00
2023-01-20T08:59:54.197Z,99705.03
2023-01-20T09:02:20.798Z,99703.78
2023-01-20T09:04:50.471Z,99703.31
2023-01-20T09:07:18.614Z,99695.44
2023-01-20T09:09:45.755Z,99693.50
2023-01-20T09:12:12.623Z,99700.31
2023-01-20T09:14:41.254Z,99697.25
2023-01-20T09:17:07.809Z,99700.63
2023-01-20T09:19:34.403Z,99702.41
2023-01-20T09:22:01.150Z,99709.97
2023-01-20T09:24:27.752Z,99712.09
2023-01-20T09:26:54.639Z,99713.13
2023-01-20T09:29:21.487Z,99714.63
2023-01-20T09:31:53.442Z,99719.94
2023-01-20T09:34:24.464Z,99721.75
2023-01-20T09:36:52.983Z,99723.31
2023-01-20T09:39:38.871Z,99743.56
2023-01-20T09:42:39.907Z,99741.13
2023-01-20T09:45:28.041Z,99747.13
2023-01-20T09:48:14.132Z,99752.34
2023-01-20T09:51:13.438Z,99762.00
2023-01-20T09:53:46.100Z,99753.50
2023-01-20T09:56:16.717Z,99755.28
2023-01-20T09:58:57.933Z,99755.28
2023-01-20T10:01:36.871Z,99755.09
2023-01-20T10:04:12.330Z,99751.72
2023-01-20T10:06:38.970Z,99761.38
2023-01-20T10:09:26.197Z,99757.28
2023-01-20T10:12:00.050Z,99759.41
2023-01-20T10:14:37.343Z,99746.06
2023-01-20T10:17:13.164Z,99750.06
2023-01-20T10:19:44.343Z,99751.63
2023-01-20T10:22:26.475Z,99759.41
2023-01-20T10:24:59.797Z,99747.97
2023-01-20T10:27:28.972Z,99757.59
2023-01-20T10:30:06.258Z,99756.34
2023-01-20T10:32:36.677Z,99756.16
2023-01-20T10:35:19.008Z,99759.91
2023-01-20T10:37:45.628Z,99761.16
2023-01-20T10:40:21.638Z,99765.16
2023-01-20T10:42:49.798Z,99769.75
2023-01-20T10:45:24.762Z,99762.84
2023-01-20T10:48:10.117Z,99769.13
2023-01-20T10:51:01.752Z,99770.19
2023-01-20T10:53:49.078Z,99777.75
2023-01-20T10:56:32.808Z,99782.78
2023-01-20T10:59:04.558Z,99785.59
2023-01-20T11:01:31.410Z,99781.94
2023-01-20T11:03:58.034Z,99776.78
2023-01-20T11:06:26.872Z,99780.69
2023-01-20T11:08:54.383Z,99775.66
2023-01-20T11:11:23.356Z,99774.16
2023-01-20T11:13:53.820Z,99784.25
2023-01-20T11:16:25.068Z,99777.84
2023-01-20T11:19:02.889Z,99772.50
2023-01-20T11:21:31.749Z,99777.16
2023-01-20T11:23:59.446Z,99772.19
2023-01-20T11:26:30.225Z,99780.91
2023-01-20T11:29:24.109Z,99780.06
2023-01-20T11:31:52.997Z,99784.91
2023-01-20T11:34:32.452Z,99790.53
2023-01-20T11:37:04.887Z,99787.63
2023-01-20T11:39:36.988Z,99792.75
2023-01-20T11:42:10.589Z,99798.41
2023-01-20T11:44:47.705Z,99800.84
2023-01-20T11:47:37.525Z,99806.06
2023-01-20T11:50:18.142Z,99814.69
2023-01-20T11:52:48.519Z,99820.56
2023-01-20T11:55:23.721Z,99818.16
2023-01-20T11:57:56.552Z,99824.56
2023-01-20T12:00:41.735Z,99815.41
2023-01-20T12:03:11.842Z,99819.50
2023-01-20T12:06:20.611Z,99817.63
2023-01-20T12:08:50.585Z,99814.56
2023-01-20T12:11:41.845Z,99819.91
2023-01-20T12:14:28.861Z,99820.13
2023-01-20T12:16:58.413Z,99823.06
2023-01-20T12:19:32.790Z,99827.44
2023-01-20T12:22:03.625Z,99827.00
2023-01-20T12:24:59.442Z,99833.69
2023-01-20T12:27:27.412Z,99836.63
2023-01-20T12:29:58.495Z,99839.13
2023-01-20T12:32:25.165Z,99836.25
2023-01-20T12:34:51.916Z,99840.28
2023-01-20T12:37:27.934Z,99842.91
2023-01-20T12:40:16.651Z,99838.59
2023-01-20T12:43:19.249Z,99845.47
2023-01-20T12:45:56.043Z,99851.16
2023-01-20T12:48:44.862Z,99845.31
2023-01-20T12:51:35.960Z,99844.09
2023-01-20T12:54:14.427Z,99839.94
2023-01-20T12:56:43.557Z,99846.13
2023-01-20T12:59:29.844Z,99846.34
2023-01-20T13:02:37.555Z,99840.72
2023-01-20T13:05:21.929Z,99850.38
2023-01-20T13:07:58.466Z,99846.72
2023-01-20T13:10:55.436Z,99842.69
2023-01-20T13:13:57.639Z,99846.13
2023-01-20T13:16:42.811Z,99854.00
2023-01-20T13:19:24.752Z,99856.91
2023-01-20T13:22:06.991Z,99845.31
2023-01-20T13:24:34.653Z,99857.44
2023-01-20T13:27:01.903Z,99856.53
2023-01-20T13:29:37.219Z,99859.31
2023-01-20T13:32:18.214Z,99853.78
2023-01-20T13:34:44.856Z,99850.25
2023-01-20T13:37:23.645Z,99852.59
2023-01-20T13:39:50.696Z,99845.09
2023-01-20T13:42:29.304Z,99838.84
2023-01-20T13:45:14.678Z,99836.69
2023-01-20T13:47:57.802Z,99826.72
2023-01-20T13:50:34.016Z,99833.78
2023-01-20T13:53:00.692Z,99839.94
2023-01-20T13:55:48.169Z,99839.31
2023-01-20T13:58:15.458Z,99835.31
2023-01-20T14:00:42.620Z,99827.84
2023-01-20T14:03:40.286Z,99832.31
2023-01-20T14:06:19.251Z,99833.38
2023-01-20T14:08:50.422Z,99839.63
2023-01-20T14:11:27.341Z,99838.31
2023-01-20T14:14:05.534Z,99847.94
2023-01-20T14:16:35.337Z,99848.59
2023-01-20T14:19:15.137Z,99857.56
2023-01-20T14:21:42.411Z,99869.91
2023-01-20T14:24:28.516Z,99869.06
2023-01-20T14:27:19.567Z,99874.88
2023-01-20T14:29:47.250Z,99882.63
2023-01-20T14:32:20.595Z,99881.69
2023-01-20T14:34:49.000Z,99889.53
2023-01-20T14:37:30.159Z,99893.38
2023-01-20T14:39:59.367Z,99887.66
2023-01-20T14:42:28.263Z,99893.84
2023-01-20T14:44:55.946Z,99895.78
2023-01-20T14:47:24.252Z,99908.78
2023-01-20T14:49:52.351Z,99902.72
2023-01-20T14:52:25.670Z,99901.69
2023-01-20T14:54:56.036Z,99906.91
2023-01-20T14:57:27.010Z,99914.66
2023-01-20T15:00:11.580Z,99917.38
2023-01-20T15:02:40.513Z,99920.72
2023-01-20T15:05:28.057Z,99928.28
2023-01-20T15:08:25.324Z,99928.13
2023-01-20T15:11:18.177Z,99934.38
2023-01-20T15:14:08.624Z,99935.88
2023-01-20T15:16:44.678Z,99946.53
2023-01-20T15:19:13.947Z,99946.53
2023-01-20T15:21:43.331Z,99939.63
2023-01-20T15:24:16.556Z,99935.31
2023-01-20T15:26:44.144Z,99946.72
2023-01-20T15:29:23.871Z,99938.94
2023-01-20T15:31:51.418Z,99954.56
2023-01-20T15:34:18.929Z,99957.00
2023-01-20T15:36:47.095Z,99955.13
2023-01-20T15:39:24.902Z,99955.03
2023-01-20T15:41:55.015Z,99954.66
2023-01-20T15:44:22.285Z,99954.78
2023-01-20T15:46:48.999Z,99956.25
2023-01-20T15:49:16.263Z,99947.84
2023-01-20T15:51:43.993Z,99955.63
2023-01-20T15:54:11.318Z,99951.22
2023-01-20T15:56:41.746Z,99951.03
2023-01-20T15:59:16.552Z,99950.19
2023-01-20T16:01:47.443Z,99956.09
2023-01-20T16:04:14.116Z,99947.84
2023-01-20T16:06:42.443Z,99948.81
2023-01-20T16:09:30.086Z,99945.25
2023-01-20T16:11:56.692Z,99944.69
2023-01-20T16:14:23.202Z,99954.81
2023-01-20T16:16:49.863Z,99954.81
2023-01-20T16:19:17.042Z,99957.97
2023-01-20T16:21:45.456Z,99959.00
2023-01-20T16:24:12.689Z,99963.47
2023-01-20T16:26:40.061Z,99958.53
2023-01-20T16:29:08.761Z,99965.06
2023-01-20T16:31:35.636Z,99969.53
2023-01-20T16:34:02.427Z,99970.63
2023-01-20T16:36:29.019Z,99970.34
2023-01-20T16:38:55.700Z,99983.69
2023-01-20T16:41:30.692Z,99976.78
2023-01-20T16:43:58.695Z,99983.03
2023-01-20T16:46:29.607Z,99987.84
2023-01-20T16:49:03.550Z,99992.00
2023-01-20T16:51:31.124Z,99979.47
2023-01-20T16:53:58.168Z,99991.75
2023-01-20T16:56:30.029Z,100001.47
2023-01-20T16:58:58.421Z,100004.84
2023-01-20T17:01:25.690Z,100007.56
2023-01-20T17:03:56.861Z,100010.94
2023-01-20T17:06:26.052Z,100003.34
2023-01-20T17:08:54.299Z,100008.72
2023-01-20T17:11:26.091Z,100006.13
2023-01-20T17:13:53.065Z,100021.03
2023-01-20T17:16:20.584Z,100017.16
2023-01-20T17:18:51.365Z,100020.25
2023-01-20T17:21:20.520Z,100024.78
2023-01-20T17:23:59.572Z,100024.25
2023-01-20T17:26:26.247Z,100017.44
2023-01-20T17:29:00.112Z,100024.59
2023-01-20T17:31:28.443Z,100020.19
2023-01-20T17:33:55.076Z,100024.59
2023-01-20T17:36:21.666Z,100022.75
2023-01-20T17:38:48.426Z,100025.41
2023-01-20T17:41:15.504Z,100022.81
2023-01-20T17:43:44.213Z,100024.41
2023-01-20T17:46:15.128Z,100025.28
2023-01-20T17:48:42.185Z,100025.59
2023-01-20T17:51:13.199Z,100024.41
2023-01-20T17:53:41.518Z,100031.59
2023-01-20T17:56:12.923Z,100030.50
2023-01-20T17:58:44.529Z,100042.81
2023-01-20T18:01:19.793Z,100039.25
2023-01-20T18:03:48.330Z,100046.19
2023-01-20T18:06:16.481Z,100045.25
2023-01-20T18:08:44.114Z,100047.09
2023-01-20T18:11:19.818Z,100045.25
2023-01-20T18:13:47.738Z,100045.25
2023-01-20T18:16:16.228Z,100046.84
2023-01-20T18:18:44.199Z,100042.56
2023-01-20T18:21:21.682Z,100032.88
2023-01-20T18:23:50.130Z,100033.88
2023-01-20T18:26:18.777Z,100031.84
2023-01-20T18:28:47.956Z,100037.91
2023-01-20T18:31:19.901Z,100040.69
2023-01-20T18:33:49.112Z,100044.22
2023-01-20T18:36:19.931Z,100042.13
2023-01-20T18:38:54.176Z,100043.78
2023-01-20T18:41:21.854Z,100044.66
2023-01-20T18:43:49.241Z,100052.41
2023-01-20T18:46:16.398Z,100042.13
2023-01-20T18:48:47.366Z,100039.94
2023-01-20T18:51:15.279Z,100057.63
2023-01-20T18:53:44.065Z,100048.94
2023-01-20T18:56:12.715Z,100054.09
2023-01-20T18:58:41.261Z,100055.97
2023-01-20T19:01:09.804Z,100048.88
2023-01-20T19:03:37.799Z,100067.00
2023-01-20T19:06:05.871Z,100060.16
2023-01-20T19:08:32.666Z,100056.72
2023-01-20T19:11:03.854Z,100053.03
2023-01-20T19:13:30.514Z,100057.31
2023-01-20T19:15:57.784Z,100047.53
2023-01-20T19:18:24.874Z,100054.44
2023-01-20T19:20:51.614Z,100061.44
2023-01-20T19:23:18.975Z,100062.28
2023-01-20T19:25:45.540Z,100057.88
2023-01-20T19:28:14.220Z,100067.44
2023-01-20T19:30:42.041Z,100068.28
2023-01-20T19:33:12.078Z,100071.28
2023-01-20T19:35:41.146Z,100057.38
2023-01-20T19:38:08.601Z,100063.56
2023-01-20T19:40:35.124Z,100068.66
2023-01-20T19:43:01.733Z,100073.66
2023-01-20T19:45:40.408Z,100063.56
2023-01-20T19:48:11.542Z,100056.53
2023-01-20T19:50:38.311Z,100062.44
2023-01-20T19:53:04.773Z,100066.75
2023-01-20T19:55:31.326Z,100061.50
2023-01-20T19:57:57.967Z,100061.44
2023-01-20T20:00:24.496Z,100057.13
2023-01-20T20:02:54.481Z,100059.72
2023-01-20T20:05:21.257Z,100062.34
2023-01-20T20:07:47.747Z,100054.50
2023-01-20T20:10:17.697Z,100057.56
2023-01-20T20:12:44.790Z,100051.81
2023-01-20T20:15:11.466Z,100050.13
2023-01-20T20:17:38.055Z,100050.69
2023-01-20T20:20:05.682Z,100044.22
2023-01-20T20:22:32.181Z,100048.56
2023-01-20T20:24:58.865Z,100047.66
2023-01-20T20:27:25.504Z,100044.78
2023-01-20T20:29:54.501Z,100033.66
2023-01-20T20:32:21.013Z,100037.63
2023-01-20T20:34:47.685Z,100042.13
2023-01-20T20:37:14.319Z,100038.75
2023-01-20T20:39:45.762Z,100032.69
2023-01-20T20:42:12.680Z,100025.75
2023-01-20T20:44:41.436Z,100029.78
2023-01-20T20:47:07.986Z,100021.19
2023-01-20T20:49:34.881Z,100020.59
2023-01-20T20:52:04.323Z,100029.94
2023-01-20T20:54:30.833Z,100029.03
2023-01-20T20:56:57.517Z,100019.69
2023-01-20T20:59:24.770Z,100024.91
2023-01-20T21:01:52.471Z,100010.56
2023-01-20T21:04:19.573Z,100023.63
2023-01-20T21:06:46.068Z,100028.84
2023-01-20T21:09:12.654Z,100034.28
2023-01-20T21:11:41.540Z,100024.72
2023-01-20T21:14:09.522Z,100030.78
2023-01-20T21:16:36.207Z,100036.00
2023-01-20T21:19:03.403Z,100034.53
2023-01-20T21:21:29.941Z,100029.38
2023-01-20T21:23:57.784Z,100021.72
2023-01-20T21:26:30.032Z,100026.34
2023-01-20T21:28:57.382Z,100028.88
2023-01-20T21:31:26.649Z,100025.41
2023-01-20T21:33:55.348Z,100022.13
2023-01-20T21:36:22.528Z,100020.38
2023-01-20T21:38:49.537Z,100024.84
2023-01-20T21:41:16.682Z,100014.28
2023-01-20T21:44:03.203Z,100016.81
2023-01-20T21:46:32.436Z,100019.50
2023-01-20T21:49:17.545Z,100017.75
2023-01-20T21:52:02.823Z,100013.44
2023-01-20T21:54:30.077Z,100016.47
2023-01-20T21:56:56.963Z,100011.78
2023-01-20T21:59:23.549Z,100008.31
2023-01-20T22:01:50.429Z,100007.03
2023-01-20T22:04:16.996Z,100010.06
2023-01-20T22:06:43.648Z,100011.78
2023-01-20T22:09:10.791Z,100005.78
2023-01-20T22:11:37.469Z,100005.97
2023-01-20T22:14:04.445Z,100008.56
2023-01-20T22:16:32.255Z,99987.47
2023-01-20T22:18:58.814Z,99992.03
2023-01-20T22:21:25.775Z,99998.97
2023-01-20T22:23:53.496Z,100001.66
2023-01-20T22:26:20.095Z,100005.97
2023-01-20T22:28:46.880Z,100004.00
2023-01-20T22:31:17.638Z,99995.66
2023-01-20T22:33:44.278Z,99994.06
2023-01-20T22:36:11.001Z,99986.28
2023-01-20T22:38:37.471Z,99974.09
2023-01-20T22:41:04.976Z,99971.63
2023-01-20T22:43:31.743Z,99975.19
2023-01-20T22:45:59.702Z,99956.97
2023-01-20T22:48:26.777Z,99967.41
2023-01-20T22:50:54.624Z,99952.59
2023-01-20T22:53:21.327Z,99949.06
2023-01-20T22:56:00.381Z,99950.66
2023-01-20T22:58:27.567Z,99946.00
2023-01-20T23:00:54.288Z,99939.59
2023-01-20T23:03:20.803Z,99947.69
2023-01-20T23:05:54.613Z,99946.50
2023-01-20T23:08:21.305Z,99942.16
2023-01-20T23:10:47.899Z,99964.91
2023-01-20T23:13:16.293Z,99939.63
2023-01-20T23:15:43.839Z,99948.38
2023-01-20T23:18:11.045Z,99944.09
2023-01-20T23:20:38.143Z,99939.69
2023-01-20T23:23:05.091Z,99932.53
2023-01-20T23:25:31.560Z,99946.38
2023-01-20T23:27:58.272Z,99943.00
2023-01-20T23:30:24.950Z,99941.97
2023-01-20T23:32:51.494Z,99927.88
2023-01-20T23:35:18.178Z,99928.91
2023-01-20T23:37:44.791Z,99936.81
2023-01-20T23:40:11.876Z,99920.38
2023-01-20T23:42:38.450Z,99927.47
2023-01-20T23:45:05.644Z,99914.31
2023-01-20T23:47:32.125Z,99923.75
2023-01-20T23:49:58.649Z,99927.47
2023-01-20T23:52:26.108Z,99929.16
2023-01-20T23:54:53.327Z,99921.31
2023-01-20T23:57:20.630Z,99923.84
2023-01-20T23:59:47.240Z,99930.06
